Time;durP1;ratioP1;P1;durP2;ratioP2;P2;SDS_P1;SDS_P2;PMS_P1;PMS_P2;Temp;Humidity;BMP_temperature;BMP_pressure;BME280_temperature;BME280_humidity;BME280_pressure;Samples;Min_cycle;Max_cycle;Signal;HPM_P1;HPM_P2
2021/07/27 00:00:51;;;;;;;11.63;8.78;;;;;;;17.54;78.89;100197.08;1689950;84;21034;-75
2021/07/27 00:03:18;;;;;;;12.15;10.13;;;;;;;17.52;78.94;100180.83;1686644;84;21937;-75
2021/07/27 00:05:44;;;;;;;11.85;10.53;;;;;;;17.48;78.99;100175.87;1686507;84;21034;-75
2021/07/27 00:08:10;;;;;;;18.55;13.10;;;;;;;17.46;79.05;100171.20;1686596;85;21021;-75
2021/07/27 00:10:37;;;;;;;15.10;9.73;;;;;;;17.44;79.09;100173.31;1690836;84;21055;-75
2021/07/27 00:13:06;;;;;;;15.00;9.68;;;;;;;17.43;79.16;100179.74;1666078;86;21027;-75
2021/07/27 00:15:33;;;;;;;12.23;9.48;;;;;;;17.42;79.21;100179.95;1690172;83;21064;-75
2021/07/27 00:17:59;;;;;;;12.28;10.03;;;;;;;17.38;79.26;100183.61;1690732;84;21074;-75
2021/07/27 00:20:25;;;;;;;16.32;9.80;;;;;;;17.37;79.32;100181.14;1666160;86;21006;-75
2021/07/27 00:22:51;;;;;;;17.50;10.20;;;;;;;17.35;79.39;100182.70;1666066;86;21015;-75
2021/07/27 00:25:18;;;;;;;14.30;10.48;;;;;;;17.34;79.41;100185.12;1666180;84;21011;-75
2021/07/27 00:27:45;;;;;;;15.40;9.98;;;;;;;17.33;79.47;100186.15;1666055;86;21150;-75
2021/07/27 00:30:12;;;;;;;14.75;11.25;;;;;;;17.33;79.51;100182.11;1666010;86;21018;-75
2021/07/27 00:32:39;;;;;;;13.95;10.63;;;;;;;17.32;79.56;100193.92;1666173;86;20979;-75
2021/07/27 00:35:06;;;;;;;15.45;11.97;;;;;;;17.31;79.59;100195.51;1666017;86;21066;-75
2021/07/27 00:37:33;;;;;;;13.68;10.70;;;;;;;17.30;79.63;100196.55;1666127;86;21014;-74
2021/07/27 00:40:01;;;;;;;17.85;11.15;;;;;;;17.29;79.66;100193.53;1661520;86;21138;-75
2021/07/27 00:42:27;;;;;;;16.07;11.38;;;;;;;17.27;79.69;100187.03;1666007;86;20991;-75
2021/07/27 00:44:53;;;;;;;14.73;10.63;;;;;;;17.26;79.75;100194.81;1666031;86;21042;-75
2021/07/27 00:47:19;;;;;;;11.63;10.30;;;;;;;17.24;79.78;100191.48;1666048;86;21074;-75
2021/07/27 00:49:45;;;;;;;14.73;9.80;;;;;;;17.22;79.82;100180.11;1666077;86;21067;-75
2021/07/27 00:52:11;;;;;;;11.12;9.28;;;;;;;17.22;79.87;100176.06;1666003;86;21704;-75
2021/07/27 00:54:37;;;;;;;13.05;9.93;;;;;;;17.23;79.89;100172.34;1665960;86;21117;-74
2021/07/27 00:57:04;;;;;;;12.35;8.80;;;;;;;17.23;79.92;100169.64;1666007;86;21479;-74
2021/07/27 00:59:30;;;;;;;11.83;9.70;;;;;;;17.23;79.95;100168.81;1665730;86;21058;-74
2021/07/27 01:01:56;;;;;;;12.82;10.05;;;;;;;17.22;79.95;100176.59;1673885;85;21547;-74
2021/07/27 01:04:22;;;;;;;15.35;11.88;;;;;;;17.22;79.99;100173.89;1673837;85;20999;-75
2021/07/27 01:06:49;;;;;;;18.75;12.80;;;;;;;17.22;80.02;100172.02;1673624;85;21033;-75
2021/07/27 01:09:14;;;;;;;22.95;13.40;;;;;;;17.21;80.03;100173.58;1673994;85;20995;-75
2021/07/27 01:11:41;;;;;;;17.42;12.00;;;;;;;17.21;80.04;100172.23;1673901;85;21062;-75
2021/07/27 01:14:08;;;;;;;17.73;11.43;;;;;;;17.18;80.08;100168.11;1673857;85;21507;-75
2021/07/27 01:16:35;;;;;;;13.93;9.68;;;;;;;17.17;80.12;100173.19;1673886;85;21132;-75
2021/07/27 01:43:28;;;;;;;12.60;8.30;;;;;;;16.94;80.29;100181.02;1673940;84;21087;-74
2021/07/27 01:45:49;;;;;;;11.10;7.70;;;;;;;16.91;80.33;100181.46;1672426;85;21519;-75
2021/07/27 01:48:18;;;;;;;10.98;8.68;;;;;;;16.90;80.35;100173.06;1673719;85;21003;-75
2021/07/27 01:50:44;;;;;;;14.98;9.13;;;;;;;16.89;80.36;100172.23;1673878;85;21010;-74
2021/07/27 01:53:15;;;;;;;13.75;8.48;;;;;;;16.90;80.38;100167.67;1673706;85;21025;-74
2021/07/27 01:55:41;;;;;;;10.18;8.08;;;;;;;16.90;80.39;100173.06;1673836;85;21341;-74
2021/07/27 01:58:07;;;;;;;11.12;8.63;;;;;;;16.86;80.42;100166.45;1673559;84;21333;-74
2021/07/27 02:00:34;;;;;;;12.90;9.08;;;;;;;16.85;80.44;100163.47;1673730;85;21050;-74
2021/07/27 02:03:00;;;;;;;15.25;9.40;;;;;;;16.85;80.45;100160.78;1673616;85;21014;-74
2021/07/27 02:05:26;;;;;;;14.70;9.08;;;;;;;16.85;80.47;100160.78;1673795;85;21051;-74
2021/07/27 02:07:56;;;;;;;9.53;8.55;;;;;;;16.81;80.47;100167.64;1673827;85;21154;-74
2021/07/27 02:10:23;;;;;;;15.53;10.40;;;;;;;16.76;80.51;100167.45;1673749;85;21067;-74
2021/07/27 02:12:50;;;;;;;16.95;11.78;;;;;;;16.74;80.56;100175.76;1673773;85;21022;-74
2021/07/27 02:15:18;;;;;;;14.80;10.82;;;;;;;16.74;80.63;100183.01;1673729;85;21529;-74
2021/07/27 02:17:45;;;;;;;13.68;10.75;;;;;;;16.74;80.65;100178.45;1673906;85;20997;-74
2021/07/27 02:20:11;;;;;;;17.05;11.33;;;;;;;16.73;80.69;100179.48;1673783;85;21447;-74
2021/07/27 02:22:37;;;;;;;15.30;11.50;;;;;;;16.73;80.71;100179.48;1673734;85;20990;-75
2021/07/27 02:25:06;;;;;;;16.70;11.75;;;;;;;16.73;80.72;100184.88;1673994;85;21057;-75
2021/07/27 02:27:32;;;;;;;15.83;12.28;;;;;;;16.72;80.76;100183.73;1673786;85;21620;-74
2021/07/27 02:30:01;;;;;;;13.50;10.72;;;;;;;16.73;80.81;100185.39;1673737;85;21741;-74
2021/07/27 02:32:27;;;;;;;12.55;11.18;;;;;;;16.75;80.83;100191.37;1673874;85;21978;-74
2021/07/27 02:34:53;;;;;;;16.60;11.40;;;;;;;16.75;80.86;100187.33;1673655;85;21006;-74
2021/07/27 02:37:19;;;;;;;17.50;11.50;;;;;;;16.74;80.88;100182.49;1673707;85;21038;-74
2021/07/27 02:39:45;;;;;;;16.62;10.68;;;;;;;16.70;80.92;100175.05;1673802;85;20998;-74
2021/07/27 02:42:11;;;;;;;13.18;10.43;;;;;;;16.67;80.97;100179.00;1673795;85;21083;-74
2021/07/27 02:44:38;;;;;;;18.10;10.90;;;;;;;16.64;81.01;100174.57;1673779;85;21166;-74
2021/07/27 02:47:04;;;;;;;19.02;10.88;;;;;;;16.63;81.05;100175.60;1673731;85;20994;-75
2021/07/27 02:49:31;;;;;;;14.85;10.53;;;;;;;16.59;81.09;100178.41;1673158;85;33610;-74
2021/07/27 02:51:57;;;;;;;14.87;10.28;;;;;;;16.58;81.15;100183.48;1673515;85;21010;-74
2021/07/27 02:54:23;;;;;;;13.93;10.43;;;;;;;16.60;81.19;100190.84;1673832;85;21085;-74
2021/07/27 02:56:49;;;;;;;17.07;10.58;;;;;;;16.61;81.22;100195.16;1673668;85;21058;-74
2021/07/27 02:59:15;;;;;;;15.35;10.53;;;;;;;16.60;81.25;100202.96;1692749;84;21071;-74
2021/07/27 03:01:41;;;;;;;13.00;10.28;;;;;;;16.60;81.31;100200.27;1695935;84;21415;-74
2021/07/27 03:04:07;;;;;;;14.90;9.90;;;;;;;16.59;81.34;100196.74;1696088;84;21019;-74
2021/07/27 03:06:33;;;;;;;25.77;15.95;;;;;;;16.60;81.35;100205.66;1696029;84;21011;-74
2021/07/27 03:11:25;;;;;;;15.90;10.20;;;;;;;16.58;81.40;100204.50;1695996;84;21046;-74
2021/07/27 03:13:55;;;;;;;14.68;11.15;;;;;;;16.57;81.43;100204.73;1696105;84;21520;-74
2021/07/27 03:16:23;;;;;;;22.27;11.65;;;;;;;16.53;81.47;100207.52;1696131;84;21067;-74
2021/07/27 03:18:51;;;;;;;15.00;10.63;;;;;;;16.53;81.50;100204.81;1696105;84;21086;-74
2021/07/27 03:21:21;;;;;;;14.87;10.08;;;;;;;16.52;81.53;100204.50;1696045;84;23033;-74
2021/07/27 03:23:51;;;;;;;14.18;10.93;;;;;;;16.50;81.56;100202.84;1695995;84;21026;-74
2021/07/27 03:26:18;;;;;;;15.95;11.15;;;;;;;16.52;81.59;100204.50;1696081;84;21090;-74
2021/07/27 03:28:45;;;;;;;17.02;11.28;;;;;;;16.53;81.63;100203.47;1696021;84;21053;-74
2021/07/27 03:31:11;;;;;;;17.50;12.78;;;;;;;16.54;81.64;100214.56;1696190;84;21547;-74
2021/07/27 03:33:37;;;;;;;16.62;12.07;;;;;;;16.56;81.65;100216.02;1696049;84;21134;-74
2021/07/27 03:36:04;;;;;;;17.50;12.05;;;;;;;16.57;81.65;100210.13;1695979;84;20988;-74
2021/07/27 03:38:31;;;;;;;23.25;14.45;;;;;;;16.57;81.68;100214.95;1696083;84;21010;-74
2021/07/27 03:41:08;;;;;;;23.87;16.62;;;;;;;16.61;81.71;100214.84;1696072;84;21063;-74
2021/07/27 03:43:34;;;;;;;30.32;16.90;;;;;;;16.63;81.74;100226.77;1696038;84;21528;-74
2021/07/27 03:46:00;;;;;;;25.97;18.20;;;;;;;16.67;81.72;100228.82;1669865;84;22152;-74
2021/07/27 03:48:26;;;;;;;20.68;14.55;;;;;;;16.70;81.73;100227.56;1695980;84;21051;-74
2021/07/27 03:50:52;;;;;;;16.10;13.20;;;;;;;16.71;81.72;100230.02;1695852;84;21026;-74
2021/07/27 03:53:21;;;;;;;19.10;13.62;;;;;;;16.72;81.75;100232.20;1696305;84;21039;-74
2021/07/27 03:55:47;;;;;;;21.73;13.93;;;;;;;16.72;81.75;100233.03;1696159;84;21027;-74
2021/07/27 03:58:13;;;;;;;19.10;14.03;;;;;;;;;;1689129;84;21917;-74
2021/07/27 04:00:39;;;;;;;25.10;14.00;;;;;;;16.85;81.81;100251.02;1674083;85;20958;-74
2021/07/27 04:03:05;;;;;;;18.50;13.18;;;;;;;;;;1673813;85;20998;-74
2021/07/27 04:05:34;;;;;;;21.35;13.95;;;;;;;17.61;82.21;100242.90;1673969;85;21511;-74
2021/07/27 04:08:00;;;;;;;17.90;13.13;;;;;;;18.31;81.95;100244.33;1674103;85;21050;-74
2021/07/27 04:10:26;;;;;;;22.35;12.85;;;;;;;18.49;81.58;100240.29;1673941;85;21161;-74
2021/07/27 04:12:52;;;;;;;18.48;11.35;;;;;;;19.13;81.71;100237.53;1673919;85;21495;-74
2021/07/27 04:15:30;;;;;;;21.02;9.75;;;;;;;20.11;81.51;100231.91;1673987;85;21041;-74
2021/07/27 04:17:56;;;;;;;14.03;9.33;;;;;;;20.89;80.97;100227.37;1673899;85;21017;-74
2021/07/27 04:20:22;;;;;;;13.05;9.45;;;;;;;21.47;80.31;100238.50;1673737;85;21062;-74
2021/07/27 04:22:48;;;;;;;14.38;9.90;;;;;;;21.12;79.53;100246.28;1673983;85;21547;-74
2021/07/27 04:25:15;;;;;;;13.53;9.33;;;;;;;21.40;79.84;100244.08;1644750;85;20910;-74
2021/07/27 04:27:41;;;;;;;19.12;9.70;;;;;;;21.84;79.35;100244.59;1673850;85;21461;-75
2021/07/27 04:30:07;;;;;;;13.75;9.20;;;;;;;21.49;78.72;100241.81;1673876;85;21054;-74
2021/07/27 04:32:34;;;;;;;17.05;9.38;;;;;;;21.24;78.46;100259.28;1673817;85;21450;-75
2021/07/27 04:35:00;;;;;;;18.05;9.08;;;;;;;21.21;78.39;100262.48;1673776;85;21562;-74
2021/07/27 04:37:26;;;;;;;13.28;9.28;;;;;;;20.79;78.04;100266.48;1673763;85;20998;-74
2021/07/27 04:39:52;;;;;;;18.90;11.35;;;;;;;20.39;77.93;100271.31;1673842;85;21010;-74
2021/07/27 04:42:18;;;;;;;20.65;11.53;;;;;;;20.05;77.91;100261.30;1673987;85;21019;-74
2021/07/27 04:44:44;;;;;;;25.35;14.65;;;;;;;19.91;77.84;100261.22;1673891;85;21016;-74
2021/07/27 04:47:10;;;;;;;18.55;10.15;;;;;;;19.80;77.79;100262.03;1674100;85;21165;-74
2021/07/27 04:49:36;;;;;;;16.00;10.03;;;;;;;19.69;77.78;100265.53;1673600;85;21496;-74
2021/07/27 04:52:02;;;;;;;15.50;10.90;;;;;;;19.61;77.78;100259.09;1673818;85;21062;-74
2021/07/27 04:54:30;;;;;;;15.53;9.43;;;;;;;19.64;77.75;100261.34;1673887;85;21483;-74
2021/07/27 04:56:56;;;;;;;17.67;9.60;;;;;;;19.86;77.65;100270.56;1673745;85;21027;-75
2021/07/27 04:59:22;;;;;;;16.23;9.23;;;;;;;20.05;77.62;100270.77;1673663;84;21571;-74
2021/07/27 05:01:48;;;;;;;16.30;8.28;;;;;;;20.28;77.56;100269.44;1673633;85;21542;-74
2021/07/27 05:04:14;;;;;;;10.35;8.50;;;;;;;20.44;77.42;100270.06;1673661;85;21491;-74
2021/07/27 05:06:40;;;;;;;15.68;9.20;;;;;;;20.72;77.31;100269.86;1673780;85;20939;-74
2021/07/27 05:09:06;;;;;;;15.58;8.83;;;;;;;21.14;77.18;100274.53;1673815;85;21030;-75
2021/07/27 05:11:32;;;;;;;12.98;9.03;;;;;;;21.59;77.10;100266.41;1673697;85;21702;-75
2021/07/27 05:13:58;;;;;;;12.85;8.55;;;;;;;21.84;76.91;100277.17;1673633;85;21018;-75
2021/07/27 05:16:24;;;;;;;12.70;8.30;;;;;;;21.89;76.58;100269.62;1673853;85;21038;-74
2021/07/27 05:18:50;;;;;;;11.73;9.15;;;;;;;21.95;76.40;100270.58;1673698;85;21475;-75
2021/07/27 05:21:18;;;;;;;12.98;9.18;;;;;;;21.88;76.19;100261.20;1673802;85;21411;-75
2021/07/27 05:23:44;;;;;;;15.90;8.28;;;;;;;21.72;76.06;100263.36;1673072;85;21711;-75
2021/07/27 05:26:10;;;;;;;14.55;7.97;;;;;;;21.74;75.96;100265.31;1673593;85;21462;-74
2021/07/27 05:28:36;;;;;;;12.35;8.35;;;;;;;22.24;75.76;100274.81;1673753;85;21059;-75
2021/07/27 05:31:06;;;;;;;14.15;8.08;;;;;;;22.68;75.36;100274.39;1673606;85;20998;-75
2021/07/27 05:33:32;;;;;;;11.60;7.12;;;;;;;23.04;75.13;100272.40;1673843;85;21074;-75
2021/07/27 05:35:58;;;;;;;14.47;7.37;;;;;;;23.27;74.74;100277.55;1673811;85;21861;-74
2021/07/27 05:38:24;;;;;;;16.93;8.03;;;;;;;23.36;74.41;100273.27;1673660;85;21456;-75
2021/07/27 05:40:53;;;;;;;11.28;8.15;;;;;;;23.71;74.02;100272.02;1673647;85;21387;-74
2021/07/27 05:43:19;;;;;;;9.07;7.63;;;;;;;23.67;73.52;100273.61;1673545;85;21426;-75
2021/07/27 05:45:45;;;;;;;8.53;7.60;;;;;;;23.86;73.38;100274.86;1673450;85;21509;-75
2021/07/27 05:48:11;;;;;;;10.75;7.85;;;;;;;23.85;72.87;100274.03;1673665;85;22610;-75
2021/07/27 05:50:37;;;;;;;11.68;7.47;;;;;;;23.88;72.52;100265.36;1675267;84;20950;-74
2021/07/27 05:53:03;;;;;;;11.38;7.45;;;;;;;23.92;72.16;100262.11;1693030;84;20994;-75
2021/07/27 05:55:29;;;;;;;13.18;8.43;;;;;;;24.21;71.98;100264.25;1697454;84;21010;-74
2021/07/27 05:57:55;;;;;;;9.60;6.45;;;;;;;24.48;71.67;100268.78;1690699;84;21018;-75
2021/07/27 06:00:21;;;;;;;13.38;6.92;;;;;;;24.66;71.30;100268.34;1695261;84;21879;-75
2021/07/27 06:02:47;;;;;;;11.25;8.30;;;;;;;24.83;71.07;100264.90;1701721;84;21019;-75
2021/07/27 06:05:14;;;;;;;10.15;7.17;;;;;;;25.11;70.70;100265.82;1701822;84;21049;-75
2021/07/27 06:07:40;;;;;;;11.43;7.42;;;;;;;25.17;70.31;100266.10;1691961;84;21586;-75
2021/07/27 06:10:07;;;;;;;10.18;8.30;;;;;;;25.31;69.91;100278.16;1693463;84;21487;-75
2021/07/27 06:12:33;;;;;;;13.03;7.28;;;;;;;25.38;69.58;100275.70;1686360;84;21915;-75
2021/07/27 06:14:59;;;;;;;12.03;8.10;;;;;;;25.39;69.05;100271.89;1677781;84;21077;-75
2021/07/27 06:17:25;;;;;;;14.65;8.60;;;;;;;25.15;68.57;100273.75;1684564;84;21419;-75
2021/07/27 06:19:51;;;;;;;11.43;8.30;;;;;;;25.12;68.50;100264.71;1672793;85;21041;-75
2021/07/27 06:22:17;;;;;;;10.28;7.78;;;;;;;25.31;68.14;100267.23;1679668;84;21077;-75
2021/07/27 06:24:43;;;;;;;15.25;8.30;;;;;;;25.31;67.77;100272.69;1672792;85;22585;-75
2021/07/27 06:27:09;;;;;;;12.65;8.45;;;;;;;25.38;67.45;100272.97;1673985;84;21411;-75
2021/07/27 06:29:35;;;;;;;12.05;7.67;;;;;;;25.44;67.14;100267.23;1686237;84;21053;-75
2021/07/27 06:32:02;;;;;;;13.45;7.25;;;;;;;25.44;66.83;100266.45;1693822;84;21017;-75
2021/07/27 06:34:28;;;;;;;10.80;7.92;;;;;;;25.53;66.64;100263.47;1686629;82;21053;-75
2021/07/27 06:36:54;;;;;;;7.90;6.72;;;;;;;25.69;66.43;100263.75;1728583;82;21930;-74
2021/07/27 06:39:20;;;;;;;16.80;10.10;;;;;;;25.67;66.15;100264.58;1709303;82;21546;-74
2021/07/27 06:41:46;;;;;;;12.07;6.50;;;;;;;25.73;65.86;100266.22;1683332;84;20946;-74
2021/07/27 06:44:12;;;;;;;11.63;6.33;;;;;;;25.53;65.52;100268.94;1697872;82;21022;-74
2021/07/27 06:46:38;;;;;;;9.58;6.05;;;;;;;25.48;65.55;100268.34;1688372;84;21341;-74
2021/07/27 06:49:04;;;;;;;24.67;18.57;;;;;;;25.60;65.54;100268.13;1700834;84;21938;-75
2021/07/27 06:51:31;;;;;;;11.80;8.60;;;;;;;25.85;65.34;100262.67;1694637;84;21014;-74
2021/07/27 06:53:57;;;;;;;8.30;6.95;;;;;;;26.07;65.08;100270.02;1681862;84;21018;-74
2021/07/27 06:56:23;;;;;;;8.78;6.53;;;;;;;26.14;64.88;100272.50;1694852;84;21002;-75
2021/07/27 06:58:50;;;;;;;9.90;7.33;;;;;;;26.06;64.67;100277.97;1688745;84;21037;-74
2021/07/27 07:01:16;;;;;;;12.25;6.90;;;;;;;26.14;64.70;100282.86;1691047;84;22651;-74
2021/07/27 07:03:42;;;;;;;9.23;6.85;;;;;;;25.92;64.30;100291.92;1687565;84;21297;-74
2021/07/27 07:06:13;;;;;;;8.83;6.37;;;;;;;25.77;64.24;100293.27;1684844;84;21040;-74
2021/07/27 07:08:39;;;;;;;16.62;8.03;;;;;;;25.68;64.33;100294.91;1667711;86;21036;-75
2021/07/27 07:11:06;;;;;;;9.00;6.75;;;;;;;25.74;64.34;100299.28;1667479;85;21444;-74
2021/07/27 07:13:32;;;;;;;8.65;6.80;;;;;;;25.79;64.23;100298.73;1673323;84;21842;-75
2021/07/27 07:15:58;;;;;;;9.13;6.90;;;;;;;25.80;64.14;100299.55;1693136;84;21006;-75
2021/07/27 07:18:25;;;;;;;11.08;6.92;;;;;;;25.69;63.87;100299.27;1690082;84;21070;-75
2021/07/27 07:20:51;;;;;;;12.55;7.03;;;;;;;25.58;63.84;100298.43;1684459;84;21455;-75
2021/07/27 07:23:21;;;;;;;9.43;7.90;;;;;;;25.57;63.89;100303.64;1677448;84;21029;-74
2021/07/27 07:25:49;;;;;;;12.55;7.90;;;;;;;25.53;63.85;100303.08;1672373;84;21826;-74
2021/07/27 07:28:15;;;;;;;10.55;7.37;;;;;;;25.52;63.95;100298.16;1685343;84;21006;-75
2021/07/27 07:30:41;;;;;;;9.75;6.85;;;;;;;25.67;63.98;100293.27;1687567;84;21026;-74
2021/07/27 07:33:07;;;;;;;9.55;6.83;;;;;;;25.82;64.00;100290.55;1695745;84;21007;-74
2021/07/27 07:35:33;;;;;;;10.38;7.28;;;;;;;26.00;64.04;100289.98;1694521;84;21076;-75
2021/07/27 07:37:59;;;;;;;8.83;6.45;;;;;;;26.32;63.97;100289.16;1671013;84;21825;-74
2021/07/27 07:40:26;;;;;;;10.98;6.80;;;;;;;26.50;63.89;100289.67;1668169;84;21505;-74
2021/07/27 07:42:52;;;;;;;8.40;6.42;;;;;;;26.52;63.70;100288.86;1682346;84;21002;-74
2021/07/27 07:45:18;;;;;;;13.15;9.75;;;;;;;26.70;63.48;100284.98;1673624;84;21479;-74
2021/07/27 07:47:44;;;;;;;7.62;6.78;;;;;;;26.74;63.15;100286.62;1677614;84;21527;-74
2021/07/27 07:50:11;;;;;;;11.43;7.97;;;;;;;26.78;62.98;100291.78;1681844;84;22435;-75
2021/07/27 07:52:37;;;;;;;8.85;6.70;;;;;;;26.94;62.73;100291.22;1682511;84;20998;-75
2021/07/27 07:55:04;;;;;;;15.72;7.05;;;;;;;27.09;62.46;100291.95;1669292;84;21002;-75
2021/07/27 07:57:34;;;;;;;8.05;6.42;;;;;;;27.23;62.11;100290.23;1676608;84;21026;-75
2021/07/27 08:00:01;;;;;;;7.87;6.17;;;;;;;27.21;61.92;100293.81;1691294;83;21416;-75
2021/07/27 08:02:27;;;;;;;11.97;7.75;;;;;;;27.24;61.62;100291.87;1700721;83;21894;-75
2021/07/27 08:04:54;;;;;;;9.75;6.40;;;;;;;27.38;61.54;100287.14;1705580;83;21055;-76
2021/07/27 08:07:21;;;;;;;11.80;7.10;;;;;;;27.52;61.24;100286.80;1699337;83;21057;-75
2021/07/27 08:09:47;;;;;;;12.10;6.95;;;;;;;27.58;61.03;100283.77;1698384;83;21475;-75
2021/07/27 08:12:14;;;;;;;10.38;7.25;;;;;;;27.61;60.93;100285.94;1697965;84;21654;-75
2021/07/27 08:14:40;;;;;;;7.33;6.20;;;;;;;27.73;60.76;100288.30;1698928;83;21671;-75
2021/07/27 08:17:06;;;;;;;8.15;6.00;;;;;;;27.78;60.71;100288.27;1729069;81;21005;-75
2021/07/27 08:19:32;;;;;;;9.95;5.90;;;;;;;27.85;60.49;100291.50;1713207;83;21042;-76
2021/07/27 08:21:59;;;;;;;9.08;7.35;;;;;;;27.88;60.41;100288.19;1726454;83;21051;-76
2021/07/27 08:24:26;;;;;;;10.65;6.62;;;;;;;27.89;60.25;100277.50;1718381;83;21508;-75
2021/07/27 08:26:52;;;;;;;12.18;6.15;;;;;;;27.89;60.03;100275.30;1722261;83;22564;-76
2021/07/27 08:29:18;;;;;;;20.27;7.20;;;;;;;27.94;59.95;100280.72;1727204;83;20999;-76
2021/07/27 08:31:45;;;;;;;8.25;7.28;;;;;;;28.07;59.63;100279.56;1727039;83;21018;-76
2021/07/27 08:34:17;;;;;;;12.20;7.83;;;;;;;27.90;59.52;100282.43;1721236;83;21456;-76
2021/07/27 08:36:43;;;;;;;9.00;6.35;;;;;;;27.92;59.56;100286.52;1704083;83;21078;-76
2021/07/27 08:39:09;;;;;;;7.35;5.62;;;;;;;27.85;59.36;100291.50;1698113;84;21852;-76
2021/07/27 08:41:35;;;;;;;12.75;8.15;;;;;;;27.82;59.23;100296.19;1699502;83;21669;-76
2021/07/27 08:44:01;;;;;;;9.45;7.30;;;;;;;27.75;58.94;100292.41;1725460;83;21424;-76
2021/07/27 08:46:27;;;;;;;10.48;7.53;;;;;;;27.73;58.78;100291.03;1713032;83;21019;-76
2021/07/27 08:48:53;;;;;;;9.10;6.67;;;;;;;27.83;58.75;100294.28;1705515;83;21111;-77
2021/07/27 08:51:23;;;;;;;11.93;8.43;;;;;;;27.92;58.59;100290.63;1698893;84;21786;-77
2021/07/27 08:53:47;;;;;;;9.75;8.28;;;;;;;28.02;58.54;100294.65;1698870;83;21003;-77
2021/07/27 08:56:13;;;;;;;10.15;6.92;;;;;;;28.13;58.37;100294.86;1716865;83;20995;-77
2021/07/27 08:58:39;;;;;;;9.43;6.87;;;;;;;28.17;58.32;100291.81;1727843;83;21007;-77
2021/07/27 09:01:05;;;;;;;9.63;6.45;;;;;;;28.27;58.24;100299.94;1725133;83;21003;-77
2021/07/27 09:03:31;;;;;;;9.88;5.50;;;;;;;28.36;58.15;100294.63;1725018;82;21927;-77
2021/07/27 09:06:05;;;;;;;7.90;6.05;;;;;;;28.25;57.81;100298.02;1724674;82;21460;-77
2021/07/27 09:08:31;;;;;;;7.22;5.83;;;;;;;28.17;57.65;100293.18;1724859;82;21012;-77
2021/07/27 09:11:01;;;;;;;7.80;5.22;;;;;;;28.21;57.49;100296.16;1724884;82;21012;-77
2021/07/27 09:13:33;;;;;;;6.70;4.62;;;;;;;28.27;57.22;100291.71;1724945;83;21042;-77
2021/07/27 09:15:59;;;;;;;6.90;5.22;;;;;;;28.27;56.96;100299.94;1724520;83;21930;-77
2021/07/27 09:18:25;;;;;;;6.22;5.05;;;;;;;28.11;56.47;100302.54;1724827;83;21039;-74
2021/07/27 09:20:53;;;;;;;6.70;5.00;;;;;;;28.22;56.26;100302.72;1724967;83;21420;-74
2021/07/27 09:23:21;;;;;;;6.15;5.40;;;;;;;28.25;55.74;100304.87;1724883;82;21019;-74
2021/07/27 09:25:51;;;;;;;6.90;5.47;;;;;;;28.29;55.57;100299.08;1724855;83;21349;-75
2021/07/27 09:28:19;;;;;;;5.17;4.55;;;;;;;28.29;55.43;100303.20;1724856;82;22586;-74
2021/07/27 09:30:45;;;;;;;5.20;4.70;;;;;;;28.20;55.08;100305.48;1697828;83;20983;-74
2021/07/27 09:33:13;;;;;;;5.80;4.78;;;;;;;28.14;54.99;100300.63;1724755;82;21658;-74
2021/07/27 09:35:40;;;;;;;7.62;5.15;;;;;;;28.11;54.84;100305.86;1724932;82;21031;-74
2021/07/27 09:38:10;;;;;;;7.08;4.95;;;;;;;28.12;54.77;100302.81;1725048;82;21011;-74
2021/07/27 09:40:52;;;;;;;6.10;5.22;;;;;;;28.13;54.61;100306.38;1724821;82;22807;-74
2021/07/27 09:43:20;;;;;;;7.67;5.45;;;;;;;28.35;54.73;100303.16;1724832;83;21476;-74
2021/07/27 09:45:49;;;;;;;10.32;5.17;;;;;;;28.56;54.47;100310.90;1697996;83;21049;-74
2021/07/27 09:48:16;;;;;;;6.30;4.15;;;;;;;28.58;54.28;100308.67;1724610;83;22638;-74
2021/07/27 09:50:50;;;;;;;9.43;4.53;;;;;;;28.57;54.14;100308.98;1724590;83;21031;-74
2021/07/27 09:53:16;;;;;;;10.05;4.83;;;;;;;28.58;53.64;100310.59;1724876;83;22526;-74
2021/07/27 09:55:42;;;;;;;6.33;4.83;;;;;;;28.54;53.42;100313.65;1724749;82;20963;-74
2021/07/27 09:58:08;;;;;;;8.50;4.97;;;;;;;28.51;53.40;100307.38;1724894;82;21019;-74
2021/07/27 10:00:39;;;;;;;6.03;4.58;;;;;;;28.51;53.16;100301.89;1712620;82;21090;-74
2021/07/27 10:03:05;;;;;;;5.67;4.10;;;;;;;28.58;52.81;100300.98;1698719;84;21523;-74
2021/07/27 10:05:31;;;;;;;6.92;4.60;;;;;;;28.43;52.66;100310.77;1701913;84;22711;-74
2021/07/27 10:07:58;;;;;;;5.33;4.33;;;;;;;28.22;52.29;100302.72;1701731;84;20926;-74
2021/07/27 10:10:39;;;;;;;8.53;5.10;;;;;;;28.16;52.38;100303.05;1701846;84;20982;-74
2021/07/27 10:13:13;;;;;;;8.55;5.55;;;;;;;28.33;52.66;100297.13;1701726;84;21459;-74
2021/07/27 10:15:45;;;;;;;5.03;4.25;;;;;;;28.54;52.62;100293.89;1701704;84;21013;-74
2021/07/27 10:18:12;;;;;;;7.03;4.50;;;;;;;28.65;52.74;100293.22;1701497;84;21911;-75
2021/07/27 10:20:38;;;;;;;5.78;4.72;;;;;;;28.77;52.73;100299.17;1701809;84;21412;-74
2021/07/27 10:23:19;;;;;;;9.70;4.62;;;;;;;28.57;52.51;100300.75;1701838;84;21439;-74
2021/07/27 10:25:58;;;;;;;6.95;4.08;;;;;;;28.56;52.71;100301.30;1701338;84;21028;-75
2021/07/27 10:28:26;;;;;;;6.50;3.72;;;;;;;28.62;52.59;100304.79;1701937;84;21487;-74
2021/07/27 10:31:06;;;;;;;8.98;4.25;;;;;;;28.84;52.43;100299.63;1701809;84;21877;-74
2021/07/27 10:33:32;;;;;;;3.83;3.52;;;;;;;28.93;52.02;100303.35;1701723;84;21073;-74
2021/07/27 10:35:58;;;;;;;5.78;3.60;;;;;;;29.03;51.52;100310.09;1701835;84;20986;-74
2021/07/27 10:38:37;;;;;;;5.03;3.95;;;;;;;29.07;51.35;100308.39;1701808;84;20998;-74
2021/07/27 10:41:16;;;;;;;;;;;;;;;29.13;51.16;100301.71;1703876;84;21074;-74
2021/07/27 10:43:42;;;;;;;4.53;3.70;;;;;;;29.27;50.88;100296.92;1701938;84;21851;-74
2021/07/27 10:46:10;;;;;;;7.95;3.72;;;;;;;29.36;50.65;100297.87;1701692;84;20998;-75
2021/07/27 10:48:38;;;;;;;8.98;4.42;;;;;;;29.29;50.07;100298.80;1701927;84;21010;-74
2021/07/27 10:51:06;;;;;;;4.53;3.67;;;;;;;29.41;49.83;100300.56;1701652;84;21380;-75
2021/07/27 10:53:33;;;;;;;5.95;4.20;;;;;;;29.40;49.44;100297.55;1701761;84;21006;-74
2021/07/27 10:56:03;;;;;;;5.35;3.27;;;;;;;29.41;48.99;100303.31;1701810;84;21876;-77
2021/07/27 10:58:30;;;;;;;5.65;4.15;;;;;;;29.49;48.86;100304.00;1701234;84;21018;-77
2021/07/27 11:01:08;;;;;;;3.72;3.17;;;;;;;29.35;48.56;100298.42;1701605;83;20992;-77
2021/07/27 11:03:34;;;;;;;7.67;4.70;;;;;;;29.32;48.24;100298.20;1701675;83;21495;-77
2021/07/27 11:06:03;;;;;;;6.53;4.28;;;;;;;29.25;47.96;100292.50;1701851;84;21433;-77
2021/07/27 11:08:29;;;;;;;9.73;3.85;;;;;;;29.30;47.94;100289.45;1701470;84;21851;-77
2021/07/27 11:11:07;;;;;;;5.50;3.40;;;;;;;29.37;47.75;100292.65;1701778;84;21427;-77
2021/07/27 11:13:33;;;;;;;6.37;3.55;;;;;;;29.39;47.46;100291.78;1701225;84;21022;-77
2021/07/27 11:16:00;;;;;;;5.58;3.72;;;;;;;29.19;47.31;100296.44;1701808;83;21539;-77
2021/07/27 11:18:28;;;;;;;5.78;4.30;;;;;;;28.97;47.34;100290.67;1701884;83;21019;-77
2021/07/27 11:20:54;;;;;;;3.70;3.33;;;;;;;29.02;47.59;100294.74;1701769;84;22008;-77
2021/07/27 11:23:20;;;;;;;8.00;3.58;;;;;;;29.19;47.41;100290.12;1701921;84;21665;-77
2021/07/27 11:25:53;;;;;;;4.75;3.77;;;;;;;29.18;47.02;100285.17;1701692;84;20919;-77
2021/07/27 11:28:20;;;;;;;4.45;3.65;;;;;;;28.79;46.35;100292.81;1701800;84;21010;-77
2021/07/27 11:30:46;;;;;;;6.08;3.40;;;;;;;28.30;46.28;100295.79;1701709;84;21396;-77
2021/07/27 11:33:19;;;;;;;7.30;3.30;;;;;;;28.05;46.52;100291.33;1701836;84;22496;-77
2021/07/27 11:35:50;;;;;;;7.83;3.62;;;;;;;28.33;46.85;100290.27;1694305;84;21044;-74
2021/07/27 11:38:30;;;;;;;5.60;3.50;;;;;;;28.60;46.73;100298.78;1689902;84;20994;-74
2021/07/27 11:41:07;;;;;;;3.55;3.05;;;;;;;28.46;46.69;100293.72;1675435;84;21395;-74
2021/07/27 11:43:39;;;;;;;4.55;3.95;;;;;;;28.17;46.66;100288.24;1674136;84;21021;-74
2021/07/27 11:46:21;;;;;;;5.65;3.40;;;;;;;27.91;46.81;100284.05;1698701;84;21833;-74